createdAt,value
2023-04-16T00:00:14.714Z,21.33
2023-04-16T00:02:45.307Z,21.85
2023-04-16T00:05:13.600Z,24.17
2023-04-16T00:08:05.610Z,23.55
2023-04-16T00:10:34.847Z,25.77
2023-04-16T00:13:01.640Z,23.08
2023-04-16T00:15:28.346Z,25.67
2023-04-16T00:17:55.252Z,27.20
2023-04-16T00:20:24.484Z,24.35
2023-04-16T00:22:51.516Z,28.70
2023-04-16T00:25:21.761Z,26.58
2023-04-16T00:27:48.533Z,21.73
2023-04-16T00:30:15.797Z,23.10
2023-04-16T00:32:48.477Z,27.58
2023-04-16T00:35:15.414Z,30.23
2023-04-16T00:37:43.967Z,27.00
2023-04-16T00:40:11.504Z,27.27
2023-04-16T00:42:38.309Z,27.73
2023-04-16T00:45:06.673Z,27.38
2023-04-16T00:47:34.081Z,29.95
2023-04-16T00:50:02.954Z,24.70
2023-04-16T00:52:39.026Z,28.48
2023-04-16T00:55:08.137Z,29.02
2023-04-16T00:57:37.270Z,25.75
2023-04-16T01:00:13.745Z,26.35
2023-04-16T01:02:43.922Z,27.00
2023-04-16T01:05:11.435Z,27.83
2023-04-16T01:07:38.212Z,26.00
2023-04-16T01:10:05.508Z,25.40
2023-04-16T01:12:32.559Z,23.33
2023-04-16T01:14:59.418Z,23.50
2023-04-16T01:17:26.620Z,21.10
2023-04-16T01:19:55.675Z,25.38
2023-04-16T01:22:22.734Z,24.30
2023-04-16T01:24:52.418Z,29.48
2023-04-16T01:27:23.576Z,26.23
2023-04-16T01:29:53.706Z,24.02
2023-04-16T01:32:27.690Z,23.60
2023-04-16T01:34:56.493Z,26.48
2023-04-16T01:37:26.339Z,29.92
2023-04-16T01:40:00.482Z,25.42
2023-04-16T01:42:34.794Z,24.48
2023-04-16T01:47:33.332Z,25.98
2023-04-16T01:50:01.060Z,24.77
2023-04-16T01:52:27.944Z,26.05
2023-04-16T01:54:54.697Z,23.30
2023-04-16T01:57:27.566Z,22.00
2023-04-16T01:59:54.331Z,25.00
2023-04-16T02:02:28.221Z,25.10
2023-04-16T02:04:57.400Z,26.42
2023-04-16T02:07:27.639Z,22.83
2023-04-16T02:09:54.625Z,24.15
2023-04-16T02:12:27.441Z,22.17
2023-04-16T02:14:54.336Z,25.38
2023-04-16T02:17:24.201Z,23.70
2023-04-16T02:19:51.204Z,29.95
2023-04-16T02:22:18.080Z,23.20
2023-04-16T02:24:44.898Z,28.17
2023-04-16T02:27:11.551Z,23.33
2023-04-16T02:29:47.558Z,27.92
2023-04-16T02:32:17.185Z,24.58
2023-04-16T02:34:45.388Z,27.35
2023-04-16T02:37:14.384Z,25.33
2023-04-16T02:39:45.150Z,28.35
2023-04-16T02:42:33.091Z,23.75
2023-04-16T02:44:59.858Z,24.42
2023-04-16T02:47:26.543Z,22.10
2023-04-16T02:49:59.171Z,23.13
2023-04-16T02:52:27.879Z,23.60
2023-04-16T02:55:02.409Z,22.48
2023-04-16T02:57:29.077Z,24.00
2023-04-16T02:59:55.932Z,22.05
2023-04-16T03:02:28.399Z,24.77
2023-04-16T03:04:55.545Z,23.08
2023-04-16T03:10:03.258Z,21.90
2023-04-16T03:12:52.573Z,24.30
2023-04-16T03:15:37.258Z,23.55
2023-04-16T03:18:12.889Z,23.27
2023-04-16T03:20:51.879Z,23.63
2023-04-16T03:23:18.667Z,21.50
2023-04-16T03:25:47.898Z,25.73
2023-04-16T03:28:35.426Z,22.98
2023-04-16T03:31:02.247Z,23.88
2023-04-16T03:33:32.457Z,21.02
2023-04-16T03:36:15.221Z,19.75
2023-04-16T03:38:53.544Z,23.17
2023-04-16T03:41:46.459Z,20.85
2023-04-16T03:44:13.510Z,22.42
2023-04-16T03:46:43.675Z,24.17
2023-04-16T03:49:22.450Z,20.92
2023-04-16T03:52:03.073Z,21.92
2023-04-16T03:54:36.081Z,21.23
2023-04-16T03:57:08.712Z,23.02
2023-04-16T03:59:49.492Z,22.40
2023-04-16T04:02:19.330Z,24.58
2023-04-16T04:04:57.319Z,21.77
2023-04-16T04:10:27.678Z,21.10
2023-04-16T04:13:08.408Z,23.45
2023-04-16T04:16:04.448Z,23.80
2023-04-16T04:18:34.346Z,18.60
2023-04-16T04:21:11.650Z,22.15
2023-04-16T04:23:44.497Z,23.98
2023-04-16T04:26:14.508Z,19.73
2023-04-16T04:29:04.834Z,25.48
2023-04-16T04:31:34.493Z,20.70
2023-04-16T04:34:03.170Z,22.30
2023-04-16T04:37:05.249Z,22.65
2023-04-16T04:39:44.751Z,19.63
2023-04-16T04:42:11.542Z,22.50
2023-04-16T04:45:01.469Z,24.40
2023-04-16T04:47:30.857Z,22.80
2023-04-16T04:50:05.067Z,22.17
2023-04-16T04:52:57.645Z,27.48
2023-04-16T04:55:22.947Z,19.67
2023-04-16T04:57:51.177Z,25.73
2023-04-16T05:00:45.373Z,22.95
2023-04-16T05:03:24.644Z,23.33
2023-04-16T05:05:53.584Z,20.15
2023-04-16T05:08:20.395Z,23.98
2023-04-16T05:10:49.400Z,23.38
2023-04-16T05:13:18.757Z,21.27
2023-04-16T05:15:54.745Z,20.75
2023-04-16T05:18:21.481Z,21.33
2023-04-16T05:20:49.706Z,19.95
2023-04-16T05:23:23.469Z,22.13
2023-04-16T05:26:10.611Z,21.35
2023-04-16T05:28:37.418Z,17.92
2023-04-16T05:31:17.392Z,25.10
2023-04-16T05:33:51.793Z,18.85
2023-04-16T05:38:53.656Z,20.55
2023-04-16T05:41:20.422Z,18.40
2023-04-16T05:43:57.826Z,21.90
2023-04-16T05:46:24.668Z,21.27
2023-04-16T05:49:04.260Z,25.30
2023-04-16T05:51:51.431Z,18.80
2023-04-16T05:54:18.486Z,20.95
2023-04-16T05:56:51.454Z,22.13
2023-04-16T06:02:01.588Z,21.58
2023-04-16T06:04:31.609Z,21.95
2023-04-16T06:18:11.428Z,19.02
2023-04-16T06:34:10.317Z,18.88
2023-04-16T06:44:44.954Z,19.00
2023-04-16T06:59:01.512Z,20.20
2023-04-16T07:12:59.475Z,17.77
2023-04-16T07:48:42.307Z,19.77
2023-04-16T08:21:58.199Z,18.40
2023-04-16T08:24:46.939Z,18.52
2023-04-16T09:25:01.196Z,16.48
2023-04-16T10:16:18.934Z,25.48
2023-04-16T10:18:48.994Z,20.85
2023-04-16T10:21:16.623Z,22.75
2023-04-16T10:23:53.965Z,23.60
2023-04-16T10:26:28.988Z,21.95
2023-04-16T10:29:17.325Z,20.42
2023-04-16T10:32:01.621Z,22.42
2023-04-16T10:34:31.348Z,25.67
2023-04-16T10:37:23.938Z,22.08
2023-04-16T10:39:55.279Z,24.05
2023-04-16T10:42:22.384Z,26.83
2023-04-16T10:44:52.186Z,23.98
2023-04-16T10:48:03.129Z,27.67
2023-04-16T10:50:52.212Z,26.83
2023-04-16T10:53:31.545Z,27.73
2023-04-16T10:56:08.018Z,25.05
2023-04-16T10:58:49.879Z,24.85
2023-04-16T11:01:17.050Z,24.52
2023-04-16T11:03:49.119Z,24.45
2023-04-16T11:06:28.300Z,24.10
2023-04-16T11:08:55.679Z,24.92
2023-04-16T11:11:23.702Z,22.45
2023-04-16T11:14:03.796Z,22.77
2023-04-16T11:16:45.728Z,21.65
2023-04-16T11:19:33.569Z,22.85
2023-04-16T11:22:02.787Z,18.20
2023-04-16T11:24:42.610Z,23.13
2023-04-16T11:27:09.564Z,20.90
2023-04-16T11:29:40.660Z,17.98
2023-04-16T11:32:07.982Z,19.73
2023-04-16T11:34:35.185Z,15.98
2023-04-16T11:37:05.037Z,17.90
2023-04-16T11:39:44.401Z,19.98
2023-04-16T11:42:19.624Z,21.42
2023-04-16T11:45:06.851Z,17.40
2023-04-16T11:48:00.430Z,17.40
2023-04-16T11:50:29.279Z,18.73
2023-04-16T11:53:16.205Z,19.10
2023-04-16T11:56:07.238Z,16.88
2023-04-16T11:58:34.276Z,20.33
2023-04-16T12:01:08.966Z,17.60
2023-04-16T12:04:05.653Z,19.20
2023-04-16T12:06:33.213Z,17.90
2023-04-16T12:09:21.533Z,22.20
2023-04-16T12:11:51.396Z,18.70
2023-04-16T12:14:18.542Z,20.55
2023-04-16T12:16:50.345Z,18.65
2023-04-16T12:19:21.879Z,17.70
2023-04-16T12:21:51.096Z,21.85
2023-04-16T12:24:28.122Z,17.20
2023-04-16T12:27:07.153Z,17.35
2023-04-16T12:33:19.130Z,16.98
2023-04-16T12:35:49.401Z,17.80
2023-04-16T12:38:23.604Z,16.83
2023-04-16T12:40:51.993Z,17.67
2023-04-16T12:43:23.826Z,17.13
2023-04-16T12:46:34.924Z,16.73
2023-04-16T12:56:12.700Z,18.73
2023-04-16T13:02:34.276Z,17.08
2023-04-16T13:05:01.683Z,15.98
2023-04-16T13:07:29.154Z,15.52
2023-04-16T13:10:09.975Z,15.77
2023-04-16T13:12:49.431Z,15.85
2023-04-16T13:15:19.739Z,15.65
2023-04-16T13:17:49.635Z,15.90
2023-04-16T13:20:22.458Z,19.67
2023-04-16T13:26:18.818Z,16.77
2023-04-16T13:43:55.454Z,14.85
2023-04-16T13:47:04.204Z,15.50
2023-04-16T13:51:22.550Z,14.80
2023-04-16T13:55:23.044Z,13.30
2023-04-16T14:04:05.276Z,13.07
2023-04-16T14:10:30.161Z,13.98
2023-04-16T14:13:10.974Z,14.35
2023-04-16T14:17:12.247Z,13.95
2023-04-16T14:21:14.628Z,14.13
2023-04-16T14:25:51.478Z,13.90
2023-04-16T15:52:53.718Z,15.32
2023-04-16T16:03:56.522Z,15.38
2023-04-16T16:09:05.575Z,15.52
2023-04-16T17:50:11.234Z,15.90
2023-04-16T18:24:00.513Z,22.48
2023-04-16T18:54:44.105Z,26.80
2023-04-16T19:03:12.155Z,26.27
2023-04-16T19:53:38.403Z,31.38
2023-04-16T20:07:02.096Z,33.72
2023-04-16T20:09:28.906Z,33.53
2023-04-16T20:12:01.457Z,32.63
2023-04-16T20:14:28.315Z,35.05
2023-04-16T20:16:58.341Z,30.70
2023-04-16T20:19:31.620Z,36.22
2023-04-16T20:22:04.406Z,31.33
2023-04-16T20:24:32.545Z,30.45
2023-04-16T20:26:59.785Z,34.17
2023-04-16T20:29:38.516Z,31.45
2023-04-16T20:32:25.946Z,34.03
2023-04-16T20:34:58.422Z,38.03
2023-04-16T20:37:27.365Z,35.60
2023-04-16T20:40:01.647Z,42.85
2023-04-16T20:45:06.190Z,52.17
2023-04-16T20:47:38.620Z,49.40
2023-04-16T20:50:15.858Z,50.95
2023-04-16T20:53:14.376Z,53.50
2023-04-16T20:56:09.150Z,50.85
2023-04-16T20:58:36.278Z,51.10
2023-04-16T21:01:07.612Z,48.92
2023-04-16T21:03:50.130Z,46.75
2023-04-16T21:06:18.005Z,44.15
2023-04-16T21:08:51.155Z,47.38
2023-04-16T21:11:25.319Z,42.80
2023-04-16T21:14:01.542Z,37.75
2023-04-16T21:16:36.608Z,40.25
2023-04-16T21:19:03.939Z,37.13
2023-04-16T21:21:45.742Z,34.40
2023-04-16T21:24:17.473Z,37.88
2023-04-16T21:26:46.492Z,39.22
2023-04-16T21:29:13.516Z,39.55
2023-04-16T21:31:47.614Z,39.05
2023-04-16T21:34:18.267Z,37.95
2023-04-16T21:36:50.665Z,33.85
2023-04-16T21:39:19.725Z,37.22
2023-04-16T21:41:49.934Z,40.17
2023-04-16T21:44:16.975Z,38.25
2023-04-16T21:46:44.126Z,38.03
2023-04-16T21:49:11.483Z,42.03
2023-04-16T21:51:40.413Z,38.72
2023-04-16T21:54:09.739Z,39.10
2023-04-16T21:56:52.509Z,40.72
2023-04-16T21:59:19.541Z,40.78
2023-04-16T22:01:46.513Z,43.63
2023-04-16T22:04:25.913Z,39.33
2023-04-16T22:06:56.133Z,42.88
2023-04-16T22:09:24.832Z,42.22
2023-04-16T22:11:52.420Z,41.10
2023-04-16T22:14:19.177Z,38.17
2023-04-16T22:16:53.746Z,38.92
2023-04-16T22:19:23.545Z,42.70
2023-04-16T22:21:50.446Z,41.90
2023-04-16T22:24:19.914Z,43.08
2023-04-16T22:26:46.793Z,41.47
2023-04-16T22:29:16.363Z,45.50
2023-04-16T22:31:57.632Z,45.25
2023-04-16T22:34:24.435Z,42.50
2023-04-16T22:36:51.459Z,44.85
2023-04-16T22:39:19.642Z,41.13
2023-04-16T22:41:46.553Z,43.25
2023-04-16T22:44:20.368Z,45.42
2023-04-16T22:46:52.162Z,43.55
2023-04-16T22:49:19.047Z,46.80
2023-04-16T22:51:46.460Z,47.42
2023-04-16T22:54:16.378Z,46.33
2023-04-16T22:56:52.383Z,50.45
2023-04-16T22:59:19.193Z,50.80
2023-04-16T23:01:46.649Z,50.30
2023-04-16T23:04:25.922Z,53.75
2023-04-16T23:06:53.991Z,53.33
2023-04-16T23:09:22.472Z,54.72
2023-04-16T23:11:49.234Z,52.83
2023-04-16T23:14:16.978Z,49.08
2023-04-16T23:16:46.940Z,56.90
2023-04-16T23:19:15.724Z,55.20
2023-04-16T23:21:47.170Z,53.25
2023-04-16T23:24:17.191Z,55.85
2023-04-16T23:26:46.389Z,59.83
2023-04-16T23:29:13.394Z,53.08
2023-04-16T23:31:48.342Z,56.28
2023-04-16T23:34:18.705Z,60.33
2023-04-16T23:36:46.044Z,59.38
2023-04-16T23:39:15.440Z,60.90
2023-04-16T23:41:44.914Z,62.70
2023-04-16T23:44:11.916Z,60.47
2023-04-16T23:46:43.330Z,67.95
2023-04-16T23:49:12.897Z,60.25
2023-04-16T23:51:54.947Z,64.43
2023-04-16T23:54:24.496Z,65.85
2023-04-16T23:56:55.092Z,67.35
2023-04-16T23:59:27.672Z,70.03
